Time;durP1;ratioP1;P1;durP2;ratioP2;P2;SDS_P1;SDS_P2;PMS_P1;PMS_P2;Temp;Humidity;BMP_temperature;BMP_pressure;BME280_temperature;BME280_humidity;BME280_pressure;Samples;Min_cycle;Max_cycle;Signal;HPM_P1;HPM_P2
2022/08/07 00:01:09;;;;;;;0.30;0.30;;;;;;;;;;4979030;28;20206;-63
2022/08/07 00:03:37;;;;;;;0.40;0.40;;;;;;;;;;4981444;28;20312;-62
2022/08/07 00:06:04;;;;;;;0.30;0.30;;;;;;;;;;4981521;28;20202;-62
2022/08/07 00:08:32;;;;;;;0.85;0.30;;;;;;;;;;4980732;28;20206;-63
2022/08/07 00:10:59;;;;;;;0.30;0.30;;;;;;;;;;4980440;28;20218;-63
2022/08/07 00:13:26;;;;;;;0.47;0.38;;;;;;;;;;4977149;28;20211;-62
2022/08/07 00:15:53;;;;;;;0.30;0.30;;;;;;;;;;4981301;28;20237;-62
2022/08/07 00:18:21;;;;;;;0.28;0.28;;;;;;;;;;4977311;28;20834;-63
2022/08/07 00:20:50;;;;;;;2.50;0.30;;;;;;;;;;4977707;28;20198;-62
2022/08/07 00:23:17;;;;;;;0.32;0.30;;;;;;;;;;4981082;28;20610;-63
2022/08/07 00:25:44;;;;;;;3.03;0.45;;;;;;;;;;4980414;28;20210;-62
2022/08/07 00:28:11;;;;;;;1.30;0.30;;;;;;;;;;4980413;28;20276;-63
2022/08/07 00:30:39;;;;;;;0.30;0.30;;;;;;;;;;4980935;28;20662;-62
2022/08/07 00:33:06;;;;;;;0.40;0.40;;;;;;;;;;4977107;28;20270;-63
2022/08/07 00:35:33;;;;;;;2.83;0.32;;;;;;;;;;4981801;28;20207;-63
2022/08/07 00:38:01;;;;;;;0.50;0.50;;;;;;;;;;4976298;28;20616;-62
2022/08/07 00:40:29;;;;;;;0.40;0.40;;;;;;;;;;4976393;28;20554;-63
2022/08/07 00:42:56;;;;;;;2.88;0.30;;;;;;;;;;4978211;28;20206;-62
2022/08/07 00:45:23;;;;;;;0.35;0.30;;;;;;;;;;4981513;28;20232;-63
2022/08/07 00:47:51;;;;;;;1.85;0.28;;;;;;;;;;4978911;28;20715;-62
2022/08/07 00:50:18;;;;;;;0.28;0.28;;;;;;;;;;4978995;28;20675;-62
2022/08/07 00:52:45;;;;;;;0.20;0.20;;;;;;;;;;4979417;28;20213;-62
2022/08/07 00:55:13;;;;;;;0.30;0.30;;;;;;;;;;4980135;28;20280;-62
2022/08/07 00:57:40;;;;;;;0.75;0.30;;;;;;;;;;4978085;28;20297;-63
2022/08/07 01:00:08;;;;;;;0.32;0.32;;;;;;;;;;4979261;28;20218;-62
2022/08/07 01:02:35;;;;;;;0.40;0.40;;;;;;;;;;4978023;28;20206;-63
2022/08/07 01:05:06;;;;;;;0.40;0.40;;;;;;;;;;4979370;28;20266;-62
2022/08/07 01:07:33;;;;;;;0.40;0.40;;;;;;;;;;4976843;28;20229;-62
2022/08/07 01:10:00;;;;;;;3.42;0.40;;;;;;;;;;4980075;28;20210;-63
2022/08/07 01:12:29;;;;;;;0.98;0.30;;;;;;;;;;4978648;28;20261;-63
2022/08/07 01:14:57;;;;;;;0.22;0.22;;;;;;;;;;4979607;28;20205;-63
2022/08/07 01:17:24;;;;;;;0.20;0.20;;;;;;;;;;4971452;28;20211;-61
2022/08/07 01:19:52;;;;;;;0.30;0.30;;;;;;;;;;4971015;28;20210;-62
2022/08/07 01:22:21;;;;;;;0.30;0.30;;;;;;;;;;4970416;28;20214;-62
2022/08/07 01:24:48;;;;;;;0.22;0.22;;;;;;;;;;4971025;28;20214;-62
2022/08/07 01:27:15;;;;;;;0.30;0.30;;;;;;;;;;4970306;28;20227;-62
2022/08/07 01:29:42;;;;;;;0.30;0.30;;;;;;;;;;4970881;28;20214;-63
2022/08/07 01:32:09;;;;;;;0.93;0.30;;;;;;;;;;4970571;28;20210;-63
2022/08/07 01:34:36;;;;;;;2.22;0.35;;;;;;;;;;4970664;28;20226;-62
2022/08/07 01:37:04;;;;;;;0.30;0.30;;;;;;;;;;4969982;28;20198;-62
2022/08/07 01:39:32;;;;;;;1.00;0.22;;;;;;;;;;4970183;28;20639;-62
2022/08/07 01:41:59;;;;;;;1.02;0.30;;;;;;;;;;4970764;28;20214;-62
2022/08/07 01:44:27;;;;;;;1.17;0.30;;;;;;;;;;4970314;28;20623;-62
2022/08/07 01:46:54;;;;;;;0.20;0.20;;;;;;;;;;4970478;28;20226;-63
2022/08/07 01:49:21;;;;;;;0.20;0.20;;;;;;;;;;4969898;28;20242;-63
2022/08/07 01:51:49;;;;;;;0.20;0.20;;;;;;;;;;4970199;28;20206;-63
2022/08/07 01:54:20;;;;;;;0.20;0.20;;;;;;;;;;4970310;28;20222;-62
2022/08/07 01:56:49;;;;;;;0.20;0.20;;;;;;;;;;4965744;28;20362;-62
2022/08/07 01:59:19;;;;;;;0.25;0.20;;;;;;;;;;4962154;28;20209;-63
2022/08/07 02:01:51;;;;;;;0.30;0.30;;;;;;;;;;4970536;28;20222;-62
2022/08/07 02:04:21;;;;;;;0.90;0.40;;;;;;;;;;4969687;28;20269;-62
2022/08/07 02:06:48;;;;;;;1.00;0.30;;;;;;;;;;4970237;28;20206;-61
2022/08/07 02:09:16;;;;;;;0.35;0.30;;;;;;;;;;4969739;28;20611;-62
2022/08/07 02:11:45;;;;;;;0.30;0.30;;;;;;;;;;4969595;28;20587;-63
2022/08/07 02:14:14;;;;;;;0.28;0.28;;;;;;;;;;4969811;28;20210;-63
2022/08/07 02:16:44;;;;;;;0.70;0.30;;;;;;;;;;4969922;28;20704;-62
2022/08/07 02:19:12;;;;;;;1.08;0.40;;;;;;;;;;4969540;28;20244;-62
2022/08/07 02:21:40;;;;;;;0.30;0.30;;;;;;;;;;4969664;28;20213;-63
2022/08/07 02:24:07;;;;;;;1.00;0.40;;;;;;;;;;4969918;28;20645;-63
2022/08/07 02:26:36;;;;;;;0.30;0.30;;;;;;;;;;4969403;28;20234;-63
2022/08/07 02:29:03;;;;;;;0.43;0.30;;;;;;;;;;4969971;28;20285;-62
2022/08/07 02:31:32;;;;;;;0.52;0.40;;;;;;;;;;4969710;28;20206;-62
2022/08/07 02:34:00;;;;;;;0.30;0.30;;;;;;;;;;4970176;28;20981;-62
2022/08/07 02:36:28;;;;;;;0.30;0.30;;;;;;;;;;4969189;28;20207;-63
2022/08/07 02:38:57;;;;;;;0.20;0.20;;;;;;;;;;4969891;28;20210;-62
2022/08/07 02:41:24;;;;;;;0.25;0.22;;;;;;;;;;4969533;28;20285;-63
2022/08/07 02:43:51;;;;;;;5.57;0.30;;;;;;;;;;4970111;28;20210;-62
2022/08/07 02:46:19;;;;;;;0.20;0.20;;;;;;;;;;4969302;28;20724;-62
2022/08/07 02:48:48;;;;;;;0.40;0.32;;;;;;;;;;4969383;28;20242;-63
2022/08/07 02:51:17;;;;;;;1.00;0.30;;;;;;;;;;4969543;28;20225;-63
2022/08/07 02:53:49;;;;;;;0.30;0.30;;;;;;;;;;4969286;28;20214;-63
2022/08/07 02:56:18;;;;;;;0.38;0.20;;;;;;;;;;4969524;28;20214;-63
2022/08/07 02:58:46;;;;;;;0.77;0.28;;;;;;;;;;4969483;28;20250;-63
2022/08/07 03:01:14;;;;;;;0.20;0.20;;;;;;;;;;4969389;28;20265;-64
2022/08/07 03:03:41;;;;;;;0.45;0.30;;;;;;;;;;4969832;28;20214;-63
2022/08/07 03:06:11;;;;;;;0.45;0.22;;;;;;;;;;4965622;28;20203;-64
2022/08/07 03:08:38;;;;;;;0.20;0.20;;;;;;;;;;4969452;28;20288;-63
2022/08/07 03:11:05;;;;;;;0.90;0.30;;;;;;;;;;4969113;28;20676;-63
2022/08/07 03:13:32;;;;;;;0.20;0.20;;;;;;;;;;4969057;28;20219;-63
2022/08/07 03:15:59;;;;;;;1.45;0.40;;;;;;;;;;4969561;28;20218;-64
2022/08/07 03:18:28;;;;;;;0.30;0.30;;;;;;;;;;4969665;28;20243;-63
2022/08/07 03:20:55;;;;;;;0.30;0.30;;;;;;;;;;4969577;28;20306;-63
2022/08/07 03:23:25;;;;;;;0.32;0.32;;;;;;;;;;4969352;28;20665;-63
2022/08/07 03:25:53;;;;;;;1.35;0.20;;;;;;;;;;4969391;28;20218;-63
2022/08/07 03:28:21;;;;;;;0.30;0.30;;;;;;;;;;4969431;28;20230;-63
2022/08/07 03:30:48;;;;;;;0.20;0.20;;;;;;;;;;4971070;28;20233;-63
2022/08/07 03:33:16;;;;;;;0.40;0.40;;;;;;;;;;4972706;28;20206;-64
2022/08/07 03:35:44;;;;;;;0.40;0.40;;;;;;;;;;4972942;28;20220;-63
2022/08/07 03:38:12;;;;;;;0.20;0.20;;;;;;;;;;4972557;28;20653;-63
2022/08/07 03:40:40;;;;;;;0.20;0.20;;;;;;;;;;4972620;28;20638;-63
2022/08/07 03:43:07;;;;;;;0.60;0.30;;;;;;;;;;4972408;28;20257;-63
2022/08/07 03:45:34;;;;;;;0.32;0.20;;;;;;;;;;4972409;28;20210;-63
2022/08/07 03:48:02;;;;;;;0.75;0.30;;;;;;;;;;4972591;28;20226;-63
2022/08/07 03:50:29;;;;;;;1.05;0.30;;;;;;;;;;4971912;28;20769;-63
2022/08/07 03:52:57;;;;;;;0.20;0.20;;;;;;;;;;4972315;28;20213;-63
2022/08/07 03:55:24;;;;;;;0.25;0.25;;;;;;;;;;4972041;28;20306;-63
2022/08/07 03:57:53;;;;;;;0.25;0.25;;;;;;;;;;4972240;28;20544;-63
2022/08/07 04:00:20;;;;;;;0.30;0.30;;;;;;;;;;4972749;28;20301;-63
2022/08/07 04:02:47;;;;;;;0.30;0.30;;;;;;;;;;4971695;28;20210;-62
2022/08/07 04:05:15;;;;;;;1.27;0.50;;;;;;;;;;4972348;28;20261;-62
2022/08/07 04:07:45;;;;;;;0.22;0.22;;;;;;;;;;4971947;28;20237;-63
2022/08/07 04:10:12;;;;;;;0.45;0.40;;;;;;;;;;4972495;28;20222;-63
2022/08/07 04:12:39;;;;;;;0.30;0.30;;;;;;;;;;4970717;28;20267;-62
2022/08/07 04:15:09;;;;;;;2.40;0.32;;;;;;;;;;4972095;28;20268;-63
2022/08/07 04:17:36;;;;;;;0.40;0.40;;;;;;;;;;4971824;28;20588;-62
2022/08/07 04:20:03;;;;;;;0.20;0.20;;;;;;;;;;4972122;28;20218;-62
2022/08/07 04:22:32;;;;;;;0.30;0.30;;;;;;;;;;4971473;28;20206;-62
2022/08/07 04:25:00;;;;;;;0.30;0.30;;;;;;;;;;4971606;28;20225;-63
2022/08/07 04:27:27;;;;;;;0.20;0.20;;;;;;;;;;4971924;28;20222;-62
2022/08/07 04:29:54;;;;;;;0.90;0.30;;;;;;;;;;4971736;28;20459;-63
2022/08/07 04:32:23;;;;;;;0.30;0.30;;;;;;;;;;4971924;28;20257;-62
2022/08/07 04:34:50;;;;;;;0.30;0.30;;;;;;;;;;4971361;28;20210;-62
2022/08/07 04:37:17;;;;;;;0.20;0.20;;;;;;;;;;4971847;28;20301;-62
2022/08/07 04:39:45;;;;;;;1.55;0.30;;;;;;;;;;4971623;28;20878;-63
2022/08/07 04:42:12;;;;;;;0.32;0.30;;;;;;;;;;4971644;28;20225;-63
2022/08/07 04:44:39;;;;;;;0.40;0.30;;;;;;;;;;4971177;28;20206;-63
2022/08/07 04:47:08;;;;;;;0.30;0.30;;;;;;;;;;4971256;28;20206;-62
2022/08/07 04:49:41;;;;;;;0.70;0.30;;;;;;;;;;4962730;28;20242;-63
2022/08/07 04:52:14;;;;;;;2.25;0.20;;;;;;;;;;4971665;28;20741;-63
2022/08/07 04:54:44;;;;;;;0.38;0.38;;;;;;;;;;4970921;28;20237;-63
2022/08/07 04:57:17;;;;;;;0.25;0.25;;;;;;;;;;4971167;28;20202;-64
2022/08/07 04:59:47;;;;;;;0.55;0.30;;;;;;;;;;4971385;28;20216;-64
2022/08/07 05:02:15;;;;;;;0.30;0.30;;;;;;;;;;4970138;28;20210;-63
2022/08/07 05:04:47;;;;;;;0.40;0.40;;;;;;;;;;4970604;28;20264;-63
2022/08/07 05:07:17;;;;;;;0.22;0.22;;;;;;;;;;4970125;28;20696;-63
2022/08/07 05:09:46;;;;;;;0.20;0.20;;;;;;;;;;4970562;28;20257;-63
2022/08/07 05:12:15;;;;;;;1.15;0.30;;;;;;;;;;4970276;28;20214;-63
2022/08/07 05:14:44;;;;;;;0.50;0.40;;;;;;;;;;4969812;28;20580;-63
2022/08/07 05:17:13;;;;;;;1.60;0.30;;;;;;;;;;4970126;28;20268;-63
2022/08/07 05:19:42;;;;;;;0.32;0.32;;;;;;;;;;4970333;28;20202;-62
2022/08/07 05:22:11;;;;;;;0.88;0.30;;;;;;;;;;4969739;28;20301;-70
2022/08/07 05:24:39;;;;;;;0.43;0.20;;;;;;;;;;4970240;28;20210;-63
2022/08/07 05:27:07;;;;;;;0.82;0.22;;;;;;;;;;4969657;28;20206;-61
2022/08/07 05:29:37;;;;;;;1.02;0.40;;;;;;;;;;4969956;28;20226;-68
2022/08/07 05:32:05;;;;;;;0.30;0.30;;;;;;;;;;4970058;28;20755;-67
2022/08/07 05:34:33;;;;;;;0.20;0.20;;;;;;;;;;4969360;28;20269;-68
2022/08/07 05:37:00;;;;;;;0.30;0.30;;;;;;;;;;4969624;28;20265;-69
2022/08/07 05:39:28;;;;;;;0.30;0.30;;;;;;;;;;4969831;28;20199;-68
2022/08/07 05:41:55;;;;;;;0.20;0.20;;;;;;;;;;4965681;28;20210;-69
2022/08/07 05:44:23;;;;;;;0.30;0.30;;;;;;;;;;4969555;28;20233;-69
2022/08/07 05:46:51;;;;;;;1.10;0.40;;;;;;;;;;4969433;28;20906;-70
2022/08/07 05:49:18;;;;;;;0.30;0.30;;;;;;;;;;4969367;28;20731;-67
2022/08/07 05:51:46;;;;;;;2.17;0.47;;;;;;;;;;4969077;28;20206;-67
2022/08/07 05:54:13;;;;;;;2.80;0.50;;;;;;;;;;4968669;28;20210;-67
2022/08/07 05:56:42;;;;;;;0.30;0.30;;;;;;;;;;4969190;28;20386;-66
2022/08/07 05:59:09;;;;;;;0.30;0.30;;;;;;;;;;4969470;28;20285;-67
2022/08/07 06:01:37;;;;;;;1.33;0.30;;;;;;;;;;4969696;28;20213;-67
2022/08/07 06:04:04;;;;;;;1.38;0.30;;;;;;;;;;4969672;28;20207;-67
2022/08/07 06:06:32;;;;;;;0.40;0.40;;;;;;;;;;4969881;28;20217;-66
2022/08/07 06:09:00;;;;;;;0.30;0.30;;;;;;;;;;4968911;28;20735;-68
2022/08/07 06:11:27;;;;;;;1.42;0.50;;;;;;;;;;4969228;28;20214;-67
2022/08/07 06:13:56;;;;;;;0.20;0.20;;;;;;;;;;4969898;28;20222;-67
2022/08/07 06:16:24;;;;;;;0.57;0.30;;;;;;;;;;4969723;28;20261;-67
2022/08/07 06:18:51;;;;;;;0.28;0.28;;;;;;;;;;4976598;28;20209;-67
2022/08/07 06:21:19;;;;;;;0.20;0.20;;;;;;;;;;4972409;28;20217;-67
2022/08/07 06:23:46;;;;;;;0.22;0.22;;;;;;;;;;4969284;28;20261;-67
2022/08/07 06:26:13;;;;;;;0.50;0.50;;;;;;;;;;4969502;28;20622;-66
2022/08/07 06:28:50;;;;;;;1.02;0.30;;;;;;;;;;4969621;28;20234;-66
2022/08/07 06:31:19;;;;;;;2.10;0.55;;;;;;;;;;4969398;28;20562;-66
2022/08/07 06:33:46;;;;;;;0.30;0.30;;;;;;;;;;4970085;28;20627;-67
2022/08/07 06:36:13;;;;;;;0.40;0.40;;;;;;;;;;4970490;28;20226;-66
2022/08/07 06:38:40;;;;;;;0.35;0.35;;;;;;;;;;4969850;28;20829;-67
2022/08/07 06:41:10;;;;;;;0.38;0.38;;;;;;;;;;4970057;28;20225;-67
2022/08/07 06:43:37;;;;;;;1.55;0.55;;;;;;;;;;4965772;28;20210;-67
2022/08/07 06:46:05;;;;;;;0.30;0.30;;;;;;;;;;4969774;28;20234;-66
2022/08/07 06:48:33;;;;;;;0.38;0.38;;;;;;;;;;4969223;28;20230;-67
2022/08/07 06:51:02;;;;;;;1.50;0.32;;;;;;;;;;4969774;28;20207;-66
2022/08/07 06:53:29;;;;;;;1.70;0.30;;;;;;;;;;4969248;28;20309;-67
2022/08/07 06:55:57;;;;;;;0.52;0.30;;;;;;;;;;4970028;28;20221;-66
2022/08/07 06:58:25;;;;;;;0.30;0.30;;;;;;;;;;4969412;28;20218;-66
2022/08/07 07:00:52;;;;;;;0.20;0.20;;;;;;;;;;4969855;28;20210;-66
2022/08/07 07:03:19;;;;;;;1.25;0.40;;;;;;;;;;4967066;28;20217;-66
2022/08/07 07:05:48;;;;;;;0.30;0.30;;;;;;;;;;4971833;28;20206;-67
2022/08/07 07:08:32;;;;;;;1.60;0.38;;;;;;;;;;4973512;28;20211;-67
2022/08/07 07:10:59;;;;;;;0.93;0.43;;;;;;;;;;4972678;28;20668;-67
2022/08/07 07:13:30;;;;;;;3.03;0.50;;;;;;;;;;4972834;28;20210;-66
2022/08/07 07:16:01;;;;;;;1.25;0.30;;;;;;;;;;4977015;28;20206;-67
2022/08/07 07:18:30;;;;;;;0.35;0.30;;;;;;;;;;4973222;28;20218;-67
2022/08/07 07:21:01;;;;;;;1.50;0.30;;;;;;;;;;4972706;28;20214;-67
2022/08/07 07:23:29;;;;;;;0.30;0.30;;;;;;;;;;4972978;28;20237;-65
2022/08/07 07:25:57;;;;;;;0.25;0.25;;;;;;;;;;4972768;28;20234;-67
2022/08/07 07:28:26;;;;;;;0.35;0.30;;;;;;;;;;4972392;28;20629;-66
2022/08/07 07:30:56;;;;;;;1.48;0.40;;;;;;;;;;4972919;28;20214;-67
2022/08/07 07:33:24;;;;;;;0.43;0.32;;;;;;;;;;4971280;28;20201;-66
2022/08/07 07:35:51;;;;;;;0.28;0.28;;;;;;;;;;4972610;28;20684;-66
2022/08/07 07:38:22;;;;;;;0.70;0.28;;;;;;;;;;4961761;28;20217;-66
2022/08/07 07:40:49;;;;;;;0.40;0.40;;;;;;;;;;4972805;28;20672;-67
2022/08/07 07:43:16;;;;;;;1.10;0.30;;;;;;;;;;4970896;28;20578;-65
2022/08/07 07:45:45;;;;;;;0.22;0.22;;;;;;;;;;4971217;28;20253;-66
2022/08/07 07:48:15;;;;;;;0.40;0.30;;;;;;;;;;4971462;28;20222;-66
2022/08/07 07:50:42;;;;;;;0.55;0.55;;;;;;;;;;4971203;28;20272;-66
2022/08/07 07:53:10;;;;;;;0.77;0.77;;;;;;;;;;4971843;28;20217;-65
2022/08/07 07:55:38;;;;;;;0.45;0.30;;;;;;;;;;4970431;28;20215;-66
2022/08/07 07:58:06;;;;;;;1.10;0.30;;;;;;;;;;4978902;28;20727;-66
2022/08/07 08:00:33;;;;;;;1.08;0.50;;;;;;;;;;4982995;28;20250;-65
2022/08/07 08:03:03;;;;;;;0.45;0.43;;;;;;;;;;4971577;28;20218;-64
2022/08/07 08:05:30;;;;;;;0.32;0.32;;;;;;;;;;4972122;28;20206;-67
2022/08/07 08:07:57;;;;;;;0.47;0.47;;;;;;;;;;4971541;28;20214;-66
2022/08/07 08:10:25;;;;;;;0.40;0.40;;;;;;;;;;4971534;28;20244;-63
2022/08/07 08:12:54;;;;;;;2.22;0.30;;;;;;;;;;4971791;28;20592;-73
2022/08/07 08:15:21;;;;;;;0.25;0.25;;;;;;;;;;4978312;28;20229;-69
2022/08/07 08:17:48;;;;;;;0.55;0.30;;;;;;;;;;4980265;28;20213;-68
2022/08/07 08:20:17;;;;;;;0.40;0.30;;;;;;;;;;4979172;28;20214;-68
2022/08/07 08:28:19;;;;;;;1.92;0.50;;;;;;;;;;4975298;28;20233;-69
2022/08/07 08:30:46;;;;;;;0.85;0.40;;;;;;;;;;4979236;28;20229;-67
2022/08/07 08:33:17;;;;;;;0.65;0.30;;;;;;;;;;4978083;28;20203;-71
2022/08/07 08:35:45;;;;;;;0.60;0.40;;;;;;;;;;4978659;28;20209;-69
2022/08/07 08:38:13;;;;;;;0.40;0.40;;;;;;;;;;4976893;28;20205;-72
2022/08/07 08:40:41;;;;;;;0.20;0.20;;;;;;;;;;4978770;28;20214;-70
2022/08/07 08:43:11;;;;;;;0.40;0.40;;;;;;;;;;4973324;28;20206;-69
2022/08/07 08:45:42;;;;;;;0.30;0.30;;;;;;;;;;4974667;28;20222;-70
2022/08/07 08:48:13;;;;;;;0.45;0.45;;;;;;;;;;4974871;28;20224;-64
2022/08/07 08:50:42;;;;;;;0.85;0.57;;;;;;;;;;4971357;28;20242;-68
2022/08/07 08:53:13;;;;;;;0.20;0.20;;;;;;;;;;4975691;28;20210;-70
2022/08/07 08:55:42;;;;;;;0.47;0.47;;;;;;;;;;4978454;28;20335;-69
2022/08/07 08:58:13;;;;;;;0.63;0.40;;;;;;;;;;4977865;28;20829;-67
2022/08/07 09:00:43;;;;;;;0.38;0.38;;;;;;;;;;4979165;28;20206;-68
2022/08/07 09:03:16;;;;;;;1.02;0.50;;;;;;;;;;4980574;28;20198;-64
2022/08/07 09:05:47;;;;;;;0.35;0.35;;;;;;;;;;4976458;28;20205;-66
2022/08/07 09:08:26;;;;;;;0.50;0.50;;;;;;;;;;4970517;28;20214;-65
2022/08/07 09:10:56;;;;;;;0.38;0.38;;;;;;;;;;4969675;28;20297;-70
2022/08/07 09:13:32;;;;;;;0.30;0.30;;;;;;;;;;4977743;28;20736;-67
2022/08/07 09:16:03;;;;;;;0.82;0.55;;;;;;;;;;4977600;28;20213;-67
2022/08/07 09:18:41;;;;;;;0.30;0.30;;;;;;;;;;4977801;28;20293;-65
2022/08/07 09:21:13;;;;;;;1.15;0.40;;;;;;;;;;4979407;28;20233;-66
2022/08/07 09:23:46;;;;;;;0.40;0.40;;;;;;;;;;4966513;28;20731;-64
2022/08/07 09:26:17;;;;;;;1.15;0.77;;;;;;;;;;4967773;28;20215;-65
2022/08/07 09:28:47;;;;;;;0.50;0.50;;;;;;;;;;4967172;28;21045;-62
2022/08/07 09:31:24;;;;;;;0.73;0.55;;;;;;;;;;4969543;28;20234;-64
2022/08/07 09:33:57;;;;;;;0.50;0.50;;;;;;;;;;4980279;28;20210;-68
2022/08/07 09:36:28;;;;;;;1.00;0.70;;;;;;;;;;4968506;28;20550;-64
2022/08/07 09:39:00;;;;;;;0.40;0.40;;;;;;;;;;4970798;28;20646;-66
2022/08/07 09:41:31;;;;;;;1.17;0.60;;;;;;;;;;4969964;28;20217;-66
2022/08/07 09:44:04;;;;;;;0.50;0.50;;;;;;;;;;4970899;28;20241;-68
2022/08/07 09:46:42;;;;;;;1.65;0.50;;;;;;;;;;4969648;28;20206;-68
2022/08/07 09:49:15;;;;;;;1.00;0.50;;;;;;;;;;4963881;28;20249;-65
2022/08/07 09:51:47;;;;;;;0.60;0.60;;;;;;;;;;4966437;28;20211;-63
2022/08/07 09:54:17;;;;;;;2.03;0.50;;;;;;;;;;4965242;28;20211;-67
2022/08/07 09:56:57;;;;;;;1.45;0.50;;;;;;;;;;4968352;28;20217;-68
2022/08/07 09:59:39;;;;;;;0.77;0.57;;;;;;;;;;4968939;28;20320;-67
2022/08/07 10:02:15;;;;;;;0.73;0.73;;;;;;;;;;4951299;29;20709;-65
2022/08/07 10:04:51;;;;;;;0.55;0.55;;;;;;;;;;4963595;28;20331;-67
2022/08/07 10:07:27;;;;;;;0.63;0.60;;;;;;;;;;4970094;28;20661;-68
2022/08/07 10:10:03;;;;;;;0.60;0.60;;;;;;;;;;4970025;28;20233;-68
2022/08/07 10:12:41;;;;;;;0.70;0.70;;;;;;;;;;4968464;28;20716;-67
2022/08/07 10:15:19;;;;;;;0.82;0.82;;;;;;;;;;4968904;28;20205;-67
2022/08/07 10:18:01;;;;;;;1.23;0.60;;;;;;;;;;4970043;28;20234;-66
2022/08/07 10:20:33;;;;;;;0.50;0.50;;;;;;;;;;4966496;28;20210;-66
2022/08/07 10:23:09;;;;;;;0.57;0.57;;;;;;;;;;4969246;28;20206;-67
2022/08/07 10:25:43;;;;;;;0.63;0.60;;;;;;;;;;4970523;28;20202;-67
2022/08/07 10:28:14;;;;;;;2.40;0.60;;;;;;;;;;4970341;28;20221;-67
2022/08/07 10:30:50;;;;;;;0.65;0.65;;;;;;;;;;4973156;28;20236;-67
2022/08/07 10:33:31;;;;;;;0.60;0.60;;;;;;;;;;4971181;28;20307;-67
2022/08/07 10:36:15;;;;;;;0.60;0.60;;;;;;;;;;4969726;28;20214;-66
2022/08/07 10:38:50;;;;;;;0.60;0.60;;;;;;;;;;4970657;28;20214;-66
2022/08/07 10:41:20;;;;;;;0.68;0.68;;;;;;;;;;4974166;28;20328;-66
2022/08/07 10:43:54;;;;;;;1.10;0.60;;;;;;;;;;4974338;28;20611;-65
2022/08/07 10:46:25;;;;;;;1.45;0.73;;;;;;;;;;4971457;28;20827;-66
2022/08/07 10:48:58;;;;;;;0.60;0.60;;;;;;;;;;4970199;28;20627;-66
2022/08/07 10:51:33;;;;;;;0.45;0.45;;;;;;;;;;4958486;28;20869;-68
2022/08/07 10:54:07;;;;;;;1.35;0.60;;;;;;;;;;4963770;28;20210;-66
2022/08/07 10:56:40;;;;;;;0.65;0.50;;;;;;;;;;4974828;28;20217;-66
2022/08/07 10:59:13;;;;;;;0.50;0.50;;;;;;;;;;4971756;28;20314;-65
2022/08/07 11:01:45;;;;;;;0.60;0.60;;;;;;;;;;4959241;28;20277;-65
2022/08/07 11:04:18;;;;;;;0.60;0.60;;;;;;;;;;4973285;28;20333;-65
2022/08/07 11:06:51;;;;;;;0.85;0.50;;;;;;;;;;4970955;28;20214;-65
2022/08/07 11:09:19;;;;;;;0.50;0.50;;;;;;;;;;4971107;28;20539;-66
2022/08/07 11:11:49;;;;;;;3.20;0.70;;;;;;;;;;4972660;28;20300;-70
2022/08/07 11:14:21;;;;;;;0.60;0.60;;;;;;;;;;4956820;28;20218;-67
2022/08/07 11:16:50;;;;;;;0.50;0.50;;;;;;;;;;4970418;28;20211;-68
2022/08/07 11:19:20;;;;;;;1.55;0.60;;;;;;;;;;4973092;28;20215;-65
2022/08/07 11:21:54;;;;;;;1.40;0.60;;;;;;;;;;4972790;28;20210;-65
2022/08/07 11:24:24;;;;;;;0.60;0.60;;;;;;;;;;4973369;28;20273;-66
2022/08/07 11:26:54;;;;;;;0.40;0.40;;;;;;;;;;4972665;28;20654;-65
2022/08/07 11:29:25;;;;;;;1.13;0.50;;;;;;;;;;4967633;28;20206;-65
2022/08/07 11:31:54;;;;;;;0.40;0.40;;;;;;;;;;4972942;28;20238;-66
2022/08/07 11:34:25;;;;;;;0.40;0.40;;;;;;;;;;4971193;28;20657;-66
2022/08/07 11:37:00;;;;;;;0.80;0.40;;;;;;;;;;4972880;28;20206;-65
2022/08/07 11:39:40;;;;;;;0.50;0.50;;;;;;;;;;4972644;28;20210;-66
2022/08/07 11:42:11;;;;;;;0.70;0.70;;;;;;;;;;4973451;28;20218;-66
2022/08/07 11:44:45;;;;;;;0.95;0.40;;;;;;;;;;4972303;28;20210;-66
2022/08/07 11:47:19;;;;;;;0.85;0.50;;;;;;;;;;4972926;28;20894;-66
2022/08/07 11:49:58;;;;;;;0.40;0.40;;;;;;;;;;4972549;28;20951;-67
2022/08/07 11:52:36;;;;;;;0.40;0.40;;;;;;;;;;4972066;28;20241;-66
2022/08/07 11:55:09;;;;;;;0.73;0.65;;;;;;;;;;4972508;28;20564;-65
2022/08/07 11:57:42;;;;;;;0.43;0.40;;;;;;;;;;4972998;28;20305;-64
2022/08/07 12:00:12;;;;;;;1.38;0.40;;;;;;;;;;4972064;28;20202;-66
2022/08/07 12:03:05;;;;;;;3.50;0.40;;;;;;;;;;4972007;28;20207;-63
2022/08/07 12:05:40;;;;;;;1.27;0.47;;;;;;;;;;4971876;28;20209;-69
2022/08/07 12:08:11;;;;;;;1.00;0.30;;;;;;;;;;4972925;28;20221;-67
2022/08/07 12:10:40;;;;;;;1.88;0.52;;;;;;;;;;4974186;28;20234;-67
2022/08/07 12:13:12;;;;;;;1.10;0.50;;;;;;;;;;4971770;28;20214;-72
2022/08/07 12:15:41;;;;;;;1.23;0.57;;;;;;;;;;4972130;28;20214;-74
2022/08/07 12:18:13;;;;;;;0.57;0.57;;;;;;;;;;4972131;28;20218;-75
2022/08/07 12:20:45;;;;;;;0.50;0.50;;;;;;;;;;4972525;28;20198;-74
2022/08/07 12:23:19;;;;;;;1.65;0.40;;;;;;;;;;4972587;28;20206;-69
2022/08/07 12:25:55;;;;;;;0.50;0.50;;;;;;;;;;4972251;28;20214;-71
2022/08/07 12:28:24;;;;;;;0.40;0.40;;;;;;;;;;4972669;28;20217;-68
2022/08/07 12:30:53;;;;;;;0.50;0.50;;;;;;;;;;4972144;28;20237;-73
2022/08/07 12:33:22;;;;;;;0.38;0.38;;;;;;;;;;4972055;28;20261;-69
2022/08/07 12:35:50;;;;;;;0.50;0.50;;;;;;;;;;4970969;28;20210;-68
2022/08/07 12:38:19;;;;;;;0.40;0.40;;;;;;;;;;4971740;28;20218;-68
2022/08/07 12:40:48;;;;;;;0.52;0.40;;;;;;;;;;4973042;28;20226;-75
2022/08/07 12:43:16;;;;;;;0.50;0.50;;;;;;;;;;4973378;28;20294;-73
2022/08/07 12:45:50;;;;;;;0.57;0.35;;;;;;;;;;4971467;28;20816;-71
2022/08/07 12:48:24;;;;;;;0.50;0.50;;;;;;;;;;4972291;28;20277;-73
2022/08/07 12:50:54;;;;;;;0.50;0.50;;;;;;;;;;4972005;28;20547;-72
2022/08/07 12:53:25;;;;;;;0.30;0.30;;;;;;;;;;4970466;28;20202;-71
2022/08/07 12:56:03;;;;;;;0.40;0.40;;;;;;;;;;4959395;28;20210;-72
2022/08/07 12:58:33;;;;;;;0.73;0.30;;;;;;;;;;4970442;28;20261;-72
2022/08/07 13:01:03;;;;;;;0.57;0.40;;;;;;;;;;4966872;28;20198;-72
2022/08/07 13:03:45;;;;;;;0.50;0.50;;;;;;;;;;4965466;28;20265;-72
2022/08/07 13:06:22;;;;;;;0.45;0.40;;;;;;;;;;4968626;28;20627;-64
2022/08/07 13:08:56;;;;;;;1.70;0.73;;;;;;;;;;4970142;28;20367;-64
2022/08/07 13:11:37;;;;;;;0.73;0.57;;;;;;;;;;4968255;28;20688;-66
2022/08/07 13:14:19;;;;;;;0.65;0.40;;;;;;;;;;4969923;28;20966;-67
2022/08/07 13:17:01;;;;;;;0.73;0.50;;;;;;;;;;4969892;28;20210;-66
2022/08/07 13:19:33;;;;;;;1.48;0.50;;;;;;;;;;4969325;28;20213;-66
2022/08/07 13:22:02;;;;;;;0.40;0.40;;;;;;;;;;4969478;28;20207;-65
2022/08/07 13:24:35;;;;;;;1.38;0.40;;;;;;;;;;4969917;28;20211;-66
2022/08/07 13:27:09;;;;;;;0.50;0.50;;;;;;;;;;4969520;28;20309;-66
2022/08/07 13:29:39;;;;;;;1.05;0.60;;;;;;;;;;4969617;28;20237;-66
2022/08/07 13:32:08;;;;;;;1.15;0.60;;;;;;;;;;4970241;28;20253;-66
2022/08/07 13:34:40;;;;;;;0.60;0.60;;;;;;;;;;4969614;28;20232;-66
2022/08/07 13:37:10;;;;;;;1.00;0.50;;;;;;;;;;4969137;28;20214;-67
2022/08/07 13:39:43;;;;;;;0.40;0.40;;;;;;;;;;4970751;28;20218;-65
2022/08/07 13:42:13;;;;;;;0.40;0.40;;;;;;;;;;4970533;28;20206;-65
2022/08/07 13:44:40;;;;;;;0.75;0.50;;;;;;;;;;4970243;28;20697;-66
2022/08/07 13:47:09;;;;;;;0.30;0.30;;;;;;;;;;4970266;28;20214;-66
2022/08/07 13:49:39;;;;;;;0.95;0.75;;;;;;;;;;4969940;28;20574;-66
2022/08/07 13:52:07;;;;;;;0.60;0.60;;;;;;;;;;4966950;28;20234;-69
2022/08/07 13:54:35;;;;;;;3.13;0.40;;;;;;;;;;4969284;28;20281;-67
2022/08/07 13:57:08;;;;;;;3.72;3.15;;;;;;;;;;4969938;28;20272;-65
2022/08/07 13:59:35;;;;;;;0.88;0.88;;;;;;;;;;4970381;28;20206;-65
2022/08/07 14:02:07;;;;;;;1.30;0.77;;;;;;;;;;4980928;28;20264;-66
2022/08/07 14:04:38;;;;;;;1.20;0.30;;;;;;;;;;4983730;28;20206;-65
2022/08/07 14:07:06;;;;;;;0.32;0.32;;;;;;;;;;4969464;28;20272;-66
2022/08/07 14:09:36;;;;;;;1.17;0.40;;;;;;;;;;4970100;28;20250;-67
2022/08/07 14:12:06;;;;;;;0.40;0.40;;;;;;;;;;4971940;28;20236;-67
2022/08/07 14:14:39;;;;;;;0.30;0.30;;;;;;;;;;4969496;28;20238;-67
2022/08/07 14:17:06;;;;;;;0.38;0.30;;;;;;;;;;4966884;28;20707;-66
2022/08/07 14:19:36;;;;;;;0.47;0.47;;;;;;;;;;4965047;28;20209;-67
2022/08/07 14:22:04;;;;;;;0.35;0.35;;;;;;;;;;4968838;28;20198;-67
2022/08/07 14:24:34;;;;;;;1.88;0.70;;;;;;;;;;4969545;28;20218;-68
2022/08/07 14:27:03;;;;;;;1.52;0.75;;;;;;;;;;4970047;28;20210;-68
2022/08/07 14:29:33;;;;;;;0.43;0.43;;;;;;;;;;4969690;28;20264;-68
2022/08/07 14:32:02;;;;;;;0.57;0.40;;;;;;;;;;4969803;28;20312;-68
2022/08/07 14:34:31;;;;;;;1.17;0.40;;;;;;;;;;4969846;28;20614;-67
2022/08/07 14:36:59;;;;;;;0.50;0.43;;;;;;;;;;4963455;28;20210;-68
2022/08/07 14:39:27;;;;;;;0.40;0.40;;;;;;;;;;4969913;28;20284;-68
2022/08/07 14:41:54;;;;;;;0.47;0.40;;;;;;;;;;4968456;28;20206;-67
2022/08/07 14:44:22;;;;;;;0.50;0.50;;;;;;;;;;4967753;28;20261;-67
2022/08/07 14:46:51;;;;;;;0.40;0.40;;;;;;;;;;4970402;28;20941;-67
2022/08/07 14:49:19;;;;;;;0.60;0.60;;;;;;;;;;4969605;28;20587;-67
2022/08/07 14:51:46;;;;;;;0.70;0.70;;;;;;;;;;4969863;28;20728;-67
2022/08/07 14:54:16;;;;;;;0.43;0.40;;;;;;;;;;4969753;28;20238;-67
2022/08/07 14:56:44;;;;;;;0.32;0.30;;;;;;;;;;4969960;28;20297;-67
2022/08/07 14:59:12;;;;;;;1.20;0.55;;;;;;;;;;4969785;28;20281;-67
2022/08/07 15:01:40;;;;;;;0.38;0.38;;;;;;;;;;4970155;28;20238;-67
2022/08/07 15:04:09;;;;;;;0.30;0.30;;;;;;;;;;4968623;28;20222;-67